sensor_id;sensor_type;location;lat;lon;timestamp;P1;durP1;ratioP1;P2;durP2;ratioP2
15482;SDS011;7843;50.330;7.312;2023-08-21T00:01:30;6.32;;;4.10;;
15482;SDS011;7843;50.330;7.312;2023-08-21T00:03:57;5.33;;;4.30;;
15482;SDS011;7843;50.330;7.312;2023-08-21T00:06:24;5.10;;;4.05;;
15482;SDS011;7843;50.330;7.312;2023-08-21T00:08:50;5.78;;;4.32;;
15482;SDS011;7843;50.330;7.312;2023-08-21T00:11:17;7.83;;;4.20;;
15482;SDS011;7843;50.330;7.312;2023-08-21T00:13:44;5.82;;;4.25;;
15482;SDS011;7843;50.330;7.312;2023-08-21T00:16:14;9.00;;;4.53;;
15482;SDS011;7843;50.330;7.312;2023-08-21T00:18:41;4.78;;;4.03;;
15482;SDS011;7843;50.330;7.312;2023-08-21T00:21:07;5.67;;;4.40;;
15482;SDS011;7843;50.330;7.312;2023-08-21T00:23:34;8.40;;;4.70;;
15482;SDS011;7843;50.330;7.312;2023-08-21T00:26:01;6.38;;;4.22;;
15482;SDS011;7843;50.330;7.312;2023-08-21T00:28:28;6.53;;;4.78;;
15482;SDS011;7843;50.330;7.312;2023-08-21T00:31:02;5.70;;;4.30;;
15482;SDS011;7843;50.330;7.312;2023-08-21T00:33:30;6.87;;;3.93;;
15482;SDS011;7843;50.330;7.312;2023-08-21T00:35:58;5.72;;;4.50;;
15482;SDS011;7843;50.330;7.312;2023-08-21T00:38:25;5.15;;;4.05;;
15482;SDS011;7843;50.330;7.312;2023-08-21T00:40:52;5.68;;;4.28;;
15482;SDS011;7843;50.330;7.312;2023-08-21T00:43:19;5.75;;;4.00;;
15482;SDS011;7843;50.330;7.312;2023-08-21T00:45:47;6.70;;;4.20;;
15482;SDS011;7843;50.330;7.312;2023-08-21T00:48:15;9.50;;;4.60;;
15482;SDS011;7843;50.330;7.312;2023-08-21T00:50:43;5.57;;;4.07;;
15482;SDS011;7843;50.330;7.312;2023-08-21T00:53:11;5.68;;;4.13;;
15482;SDS011;7843;50.330;7.312;2023-08-21T00:55:38;6.90;;;4.60;;
15482;SDS011;7843;50.330;7.312;2023-08-21T00:58:08;7.55;;;4.25;;
15482;SDS011;7843;50.330;7.312;2023-08-21T01:00:39;6.40;;;4.30;;
15482;SDS011;7843;50.330;7.312;2023-08-21T01:03:07;6.68;;;4.30;;
15482;SDS011;7843;50.330;7.312;2023-08-21T01:05:35;7.13;;;4.10;;
15482;SDS011;7843;50.330;7.312;2023-08-21T01:08:03;8.63;;;4.20;;
15482;SDS011;7843;50.330;7.312;2023-08-21T01:10:54;5.72;;;4.35;;
15482;SDS011;7843;50.330;7.312;2023-08-21T01:16:20;5.53;;;4.50;;
15482;SDS011;7843;50.330;7.312;2023-08-21T01:18:48;4.57;;;4.10;;
15482;SDS011;7843;50.330;7.312;2023-08-21T01:21:16;7.75;;;4.47;;
15482;SDS011;7843;50.330;7.312;2023-08-21T01:23:43;6.55;;;4.60;;
15482;SDS011;7843;50.330;7.312;2023-08-21T01:26:10;6.68;;;4.18;;
15482;SDS011;7843;50.330;7.312;2023-08-21T01:28:36;5.85;;;4.47;;
15482;SDS011;7843;50.330;7.312;2023-08-21T01:31:10;6.47;;;4.20;;
15482;SDS011;7843;50.330;7.312;2023-08-21T01:33:45;5.80;;;4.20;;
15482;SDS011;7843;50.330;7.312;2023-08-21T01:36:14;5.27;;;3.80;;
15482;SDS011;7843;50.330;7.312;2023-08-21T01:38:41;5.95;;;4.07;;
15482;SDS011;7843;50.330;7.312;2023-08-21T01:41:09;6.95;;;4.28;;
15482;SDS011;7843;50.330;7.312;2023-08-21T01:43:36;5.90;;;4.60;;
15482;SDS011;7843;50.330;7.312;2023-08-21T01:46:02;5.82;;;4.28;;
15482;SDS011;7843;50.330;7.312;2023-08-21T01:48:29;6.35;;;4.18;;
15482;SDS011;7843;50.330;7.312;2023-08-21T01:50:56;4.63;;;3.95;;
15482;SDS011;7843;50.330;7.312;2023-08-21T01:53:23;5.43;;;4.20;;
15482;SDS011;7843;50.330;7.312;2023-08-21T01:55:50;7.88;;;4.78;;
15482;SDS011;7843;50.330;7.312;2023-08-21T01:58:16;5.47;;;4.38;;
15482;SDS011;7843;50.330;7.312;2023-08-21T02:00:45;9.20;;;4.70;;
15482;SDS011;7843;50.330;7.312;2023-08-21T02:03:14;5.93;;;4.15;;
15482;SDS011;7843;50.330;7.312;2023-08-21T02:05:41;6.40;;;4.30;;
15482;SDS011;7843;50.330;7.312;2023-08-21T02:08:09;6.87;;;4.90;;
15482;SDS011;7843;50.330;7.312;2023-08-21T02:10:51;6.97;;;4.75;;
15482;SDS011;7843;50.330;7.312;2023-08-21T02:13:19;6.30;;;4.87;;
15482;SDS011;7843;50.330;7.312;2023-08-21T02:15:46;6.30;;;4.50;;
15482;SDS011;7843;50.330;7.312;2023-08-21T02:18:13;5.97;;;4.53;;
15482;SDS011;7843;50.330;7.312;2023-08-21T02:20:39;5.70;;;4.30;;
15482;SDS011;7843;50.330;7.312;2023-08-21T02:23:06;5.35;;;4.38;;
15482;SDS011;7843;50.330;7.312;2023-08-21T02:25:33;6.40;;;4.80;;
15482;SDS011;7843;50.330;7.312;2023-08-21T02:28:00;6.38;;;4.75;;
15482;SDS011;7843;50.330;7.312;2023-08-21T02:30:28;7.82;;;4.45;;
15482;SDS011;7843;50.330;7.312;2023-08-21T02:32:55;5.80;;;4.50;;
15482;SDS011;7843;50.330;7.312;2023-08-21T02:35:21;8.02;;;5.00;;
15482;SDS011;7843;50.330;7.312;2023-08-21T02:37:48;7.13;;;4.85;;
15482;SDS011;7843;50.330;7.312;2023-08-21T02:40:15;7.50;;;4.23;;
15482;SDS011;7843;50.330;7.312;2023-08-21T02:42:42;6.47;;;4.20;;
15482;SDS011;7843;50.330;7.312;2023-08-21T02:45:09;7.22;;;4.55;;
15482;SDS011;7843;50.330;7.312;2023-08-21T02:47:39;6.78;;;4.90;;
15482;SDS011;7843;50.330;7.312;2023-08-21T02:50:07;5.28;;;4.28;;
15482;SDS011;7843;50.330;7.312;2023-08-21T02:52:35;6.90;;;4.43;;
15482;SDS011;7843;50.330;7.312;2023-08-21T02:55:03;7.00;;;4.55;;
15482;SDS011;7843;50.330;7.312;2023-08-21T02:57:31;5.93;;;4.72;;
15482;SDS011;7843;50.330;7.312;2023-08-21T02:59:57;6.00;;;4.47;;
15482;SDS011;7843;50.330;7.312;2023-08-21T03:02:24;7.70;;;4.78;;
15482;SDS011;7843;50.330;7.312;2023-08-21T03:04:51;5.93;;;4.32;;
15482;SDS011;7843;50.330;7.312;2023-08-21T03:07:18;5.05;;;4.10;;
15482;SDS011;7843;50.330;7.312;2023-08-21T03:09:45;7.25;;;4.50;;
15482;SDS011;7843;50.330;7.312;2023-08-21T03:12:13;9.20;;;4.60;;
15482;SDS011;7843;50.330;7.312;2023-08-21T03:14:40;6.73;;;4.13;;
15482;SDS011;7843;50.330;7.312;2023-08-21T03:17:07;6.55;;;4.70;;
15482;SDS011;7843;50.330;7.312;2023-08-21T03:19:34;7.47;;;4.50;;
15482;SDS011;7843;50.330;7.312;2023-08-21T03:22:01;8.55;;;4.65;;
15482;SDS011;7843;50.330;7.312;2023-08-21T03:24:27;7.72;;;4.68;;
15482;SDS011;7843;50.330;7.312;2023-08-21T03:26:54;5.28;;;4.30;;
15482;SDS011;7843;50.330;7.312;2023-08-21T03:29:21;9.18;;;4.45;;
15482;SDS011;7843;50.330;7.312;2023-08-21T03:31:49;6.32;;;4.40;;
15482;SDS011;7843;50.330;7.312;2023-08-21T03:34:16;6.93;;;4.72;;
15482;SDS011;7843;50.330;7.312;2023-08-21T03:36:42;6.18;;;4.55;;
15482;SDS011;7843;50.330;7.312;2023-08-21T03:39:09;6.13;;;4.88;;
15482;SDS011;7843;50.330;7.312;2023-08-21T03:41:36;6.60;;;4.75;;
15482;SDS011;7843;50.330;7.312;2023-08-21T03:44:03;6.40;;;4.50;;
15482;SDS011;7843;50.330;7.312;2023-08-21T03:46:29;6.57;;;4.65;;
15482;SDS011;7843;50.330;7.312;2023-08-21T03:48:56;6.63;;;4.85;;
15482;SDS011;7843;50.330;7.312;2023-08-21T03:51:23;9.23;;;4.78;;
15482;SDS011;7843;50.330;7.312;2023-08-21T03:53:50;6.40;;;4.35;;
15482;SDS011;7843;50.330;7.312;2023-08-21T03:56:20;8.37;;;4.97;;
15482;SDS011;7843;50.330;7.312;2023-08-21T03:58:48;6.35;;;4.85;;
15482;SDS011;7843;50.330;7.312;2023-08-21T04:01:14;5.38;;;4.20;;
15482;SDS011;7843;50.330;7.312;2023-08-21T04:03:42;9.90;;;4.88;;
15482;SDS011;7843;50.330;7.312;2023-08-21T04:06:08;6.00;;;4.43;;
15482;SDS011;7843;50.330;7.312;2023-08-21T04:08:35;8.27;;;4.85;;
15482;SDS011;7843;50.330;7.312;2023-08-21T04:11:02;7.00;;;4.90;;
15482;SDS011;7843;50.330;7.312;2023-08-21T04:13:29;7.28;;;4.65;;
15482;SDS011;7843;50.330;7.312;2023-08-21T04:15:55;10.45;;;4.95;;
15482;SDS011;7843;50.330;7.312;2023-08-21T04:18:23;6.28;;;4.68;;
15482;SDS011;7843;50.330;7.312;2023-08-21T04:20:55;9.35;;;5.13;;
15482;SDS011;7843;50.330;7.312;2023-08-21T04:23:22;8.90;;;5.28;;
15482;SDS011;7843;50.330;7.312;2023-08-21T04:25:49;6.03;;;4.90;;
15482;SDS011;7843;50.330;7.312;2023-08-21T04:28:16;7.57;;;4.90;;
15482;SDS011;7843;50.330;7.312;2023-08-21T04:30:42;8.35;;;5.15;;
15482;SDS011;7843;50.330;7.312;2023-08-21T04:33:09;8.70;;;5.67;;
15482;SDS011;7843;50.330;7.312;2023-08-21T04:35:41;7.35;;;4.93;;
15482;SDS011;7843;50.330;7.312;2023-08-21T04:38:08;5.97;;;4.50;;
15482;SDS011;7843;50.330;7.312;2023-08-21T04:40:35;7.45;;;5.05;;
15482;SDS011;7843;50.330;7.312;2023-08-21T04:43:02;8.10;;;4.57;;
15482;SDS011;7843;50.330;7.312;2023-08-21T04:45:29;7.13;;;4.85;;
15482;SDS011;7843;50.330;7.312;2023-08-21T04:47:55;6.27;;;4.77;;
15482;SDS011;7843;50.330;7.312;2023-08-21T04:50:23;6.10;;;4.60;;
15482;SDS011;7843;50.330;7.312;2023-08-21T04:52:50;6.88;;;4.40;;
15482;SDS011;7843;50.330;7.312;2023-08-21T04:55:17;6.23;;;4.90;;
15482;SDS011;7843;50.330;7.312;2023-08-21T04:57:43;5.95;;;4.45;;
15482;SDS011;7843;50.330;7.312;2023-08-21T05:00:10;6.55;;;4.57;;
15482;SDS011;7843;50.330;7.312;2023-08-21T05:02:37;6.95;;;4.63;;
15482;SDS011;7843;50.330;7.312;2023-08-21T05:05:04;6.03;;;4.45;;
15482;SDS011;7843;50.330;7.312;2023-08-21T05:07:31;5.80;;;4.40;;
15482;SDS011;7843;50.330;7.312;2023-08-21T05:09:59;6.65;;;4.93;;
15482;SDS011;7843;50.330;7.312;2023-08-21T05:12:27;6.82;;;4.80;;
15482;SDS011;7843;50.330;7.312;2023-08-21T05:14:55;5.75;;;4.47;;
15482;SDS011;7843;50.330;7.312;2023-08-21T05:17:22;5.70;;;4.22;;
15482;SDS011;7843;50.330;7.312;2023-08-21T05:19:50;8.55;;;4.80;;
15482;SDS011;7843;50.330;7.312;2023-08-21T05:22:16;6.43;;;4.38;;
15482;SDS011;7843;50.330;7.312;2023-08-21T05:24:43;7.85;;;4.30;;
15482;SDS011;7843;50.330;7.312;2023-08-21T05:27:10;5.87;;;4.23;;
15482;SDS011;7843;50.330;7.312;2023-08-21T05:29:37;6.22;;;4.68;;
15482;SDS011;7843;50.330;7.312;2023-08-21T05:32:03;5.93;;;4.63;;
15482;SDS011;7843;50.330;7.312;2023-08-21T05:34:30;5.50;;;4.35;;
15482;SDS011;7843;50.330;7.312;2023-08-21T05:36:57;8.87;;;5.17;;
15482;SDS011;7843;50.330;7.312;2023-08-21T05:39:24;8.77;;;4.82;;
15482;SDS011;7843;50.330;7.312;2023-08-21T05:41:51;5.80;;;4.70;;
15482;SDS011;7843;50.330;7.312;2023-08-21T05:44:18;6.13;;;4.73;;
15482;SDS011;7843;50.330;7.312;2023-08-21T05:46:45;7.55;;;4.95;;
15482;SDS011;7843;50.330;7.312;2023-08-21T05:49:12;9.52;;;4.63;;
15482;SDS011;7843;50.330;7.312;2023-08-21T05:51:39;7.90;;;5.10;;
15482;SDS011;7843;50.330;7.312;2023-08-21T05:54:05;10.32;;;5.97;;
15482;SDS011;7843;50.330;7.312;2023-08-21T05:56:32;10.05;;;5.20;;
15482;SDS011;7843;50.330;7.312;2023-08-21T05:58:59;8.27;;;5.37;;
15482;SDS011;7843;50.330;7.312;2023-08-21T06:01:26;7.00;;;5.45;;
15482;SDS011;7843;50.330;7.312;2023-08-21T06:03:52;7.25;;;5.30;;
15482;SDS011;7843;50.330;7.312;2023-08-21T06:06:19;9.88;;;6.00;;
15482;SDS011;7843;50.330;7.312;2023-08-21T06:08:46;12.50;;;6.13;;
15482;SDS011;7843;50.330;7.312;2023-08-21T06:11:13;8.50;;;5.73;;
15482;SDS011;7843;50.330;7.312;2023-08-21T06:13:40;7.65;;;5.60;;
15482;SDS011;7843;50.330;7.312;2023-08-21T06:16:07;9.02;;;6.20;;
15482;SDS011;7843;50.330;7.312;2023-08-21T06:18:34;8.52;;;5.88;;
15482;SDS011;7843;50.330;7.312;2023-08-21T06:21:01;9.00;;;6.03;;
15482;SDS011;7843;50.330;7.312;2023-08-21T06:23:27;14.00;;;5.75;;
15482;SDS011;7843;50.330;7.312;2023-08-21T06:25:54;9.02;;;6.28;;
15482;SDS011;7843;50.330;7.312;2023-08-21T06:28:21;7.70;;;5.70;;
15482;SDS011;7843;50.330;7.312;2023-08-21T06:30:54;10.05;;;6.45;;
15482;SDS011;7843;50.330;7.312;2023-08-21T06:33:24;8.43;;;5.85;;
15482;SDS011;7843;50.330;7.312;2023-08-21T06:35:50;8.02;;;6.22;;
15482;SDS011;7843;50.330;7.312;2023-08-21T06:38:17;8.20;;;6.25;;
15482;SDS011;7843;50.330;7.312;2023-08-21T06:40:44;11.93;;;6.77;;
15482;SDS011;7843;50.330;7.312;2023-08-21T06:43:12;7.47;;;5.93;;
15482;SDS011;7843;50.330;7.312;2023-08-21T06:45:39;7.53;;;6.03;;
15482;SDS011;7843;50.330;7.312;2023-08-21T06:48:05;9.23;;;5.78;;
15482;SDS011;7843;50.330;7.312;2023-08-21T06:50:32;7.93;;;5.85;;
15482;SDS011;7843;50.330;7.312;2023-08-21T06:52:59;9.50;;;5.88;;
15482;SDS011;7843;50.330;7.312;2023-08-21T06:55:26;8.45;;;5.30;;
15482;SDS011;7843;50.330;7.312;2023-08-21T06:57:52;6.95;;;5.30;;
15482;SDS011;7843;50.330;7.312;2023-08-21T07:00:19;5.85;;;4.80;;
15482;SDS011;7843;50.330;7.312;2023-08-21T07:02:46;7.32;;;5.38;;
15482;SDS011;7843;50.330;7.312;2023-08-21T07:05:13;6.45;;;5.22;;
15482;SDS011;7843;50.330;7.312;2023-08-21T07:07:40;5.55;;;5.00;;
15482;SDS011;7843;50.330;7.312;2023-08-21T07:10:06;7.37;;;5.53;;
15482;SDS011;7843;50.330;7.312;2023-08-21T07:12:34;7.97;;;5.20;;
15482;SDS011;7843;50.330;7.312;2023-08-21T07:15:01;5.85;;;4.63;;
15482;SDS011;7843;50.330;7.312;2023-08-21T07:17:28;6.87;;;4.90;;
15482;SDS011;7843;50.330;7.312;2023-08-21T07:19:54;6.22;;;4.82;;
15482;SDS011;7843;50.330;7.312;2023-08-21T07:22:21;8.93;;;5.30;;
15482;SDS011;7843;50.330;7.312;2023-08-21T07:24:48;7.50;;;4.70;;
15482;SDS011;7843;50.330;7.312;2023-08-21T07:27:15;7.57;;;4.90;;
15482;SDS011;7843;50.330;7.312;2023-08-21T07:29:42;7.18;;;4.60;;
15482;SDS011;7843;50.330;7.312;2023-08-21T07:32:08;8.52;;;5.10;;
15482;SDS011;7843;50.330;7.312;2023-08-21T07:34:35;6.05;;;4.53;;
15482;SDS011;7843;50.330;7.312;2023-08-21T07:37:02;10.98;;;5.25;;
15482;SDS011;7843;50.330;7.312;2023-08-21T07:39:29;9.27;;;5.40;;
15482;SDS011;7843;50.330;7.312;2023-08-21T07:41:55;6.15;;;4.40;;
15482;SDS011;7843;50.330;7.312;2023-08-21T07:44:22;6.55;;;4.82;;
15482;SDS011;7843;50.330;7.312;2023-08-21T07:46:49;6.35;;;4.65;;
15482;SDS011;7843;50.330;7.312;2023-08-21T07:49:16;6.78;;;4.30;;
15482;SDS011;7843;50.330;7.312;2023-08-21T07:51:42;6.45;;;4.43;;
15482;SDS011;7843;50.330;7.312;2023-08-21T07:54:09;6.88;;;4.90;;
15482;SDS011;7843;50.330;7.312;2023-08-21T07:56:36;7.78;;;4.50;;
15482;SDS011;7843;50.330;7.312;2023-08-21T07:59:03;7.90;;;4.18;;
15482;SDS011;7843;50.330;7.312;2023-08-21T08:01:30;6.78;;;4.38;;
15482;SDS011;7843;50.330;7.312;2023-08-21T08:03:59;5.55;;;4.22;;
15482;SDS011;7843;50.330;7.312;2023-08-21T08:06:26;5.47;;;4.38;;
15482;SDS011;7843;50.330;7.312;2023-08-21T08:08:53;4.70;;;3.92;;
15482;SDS011;7843;50.330;7.312;2023-08-21T08:11:19;5.97;;;4.25;;
15482;SDS011;7843;50.330;7.312;2023-08-21T08:13:46;6.75;;;4.30;;
15482;SDS011;7843;50.330;7.312;2023-08-21T08:16:13;8.50;;;4.68;;
15482;SDS011;7843;50.330;7.312;2023-08-21T08:18:39;5.57;;;3.88;;
15482;SDS011;7843;50.330;7.312;2023-08-21T08:21:06;5.35;;;4.15;;
15482;SDS011;7843;50.330;7.312;2023-08-21T08:23:33;7.13;;;4.00;;
15482;SDS011;7843;50.330;7.312;2023-08-21T08:26:00;5.50;;;3.80;;
15482;SDS011;7843;50.330;7.312;2023-08-21T08:28:26;8.18;;;4.28;;
15482;SDS011;7843;50.330;7.312;2023-08-21T08:30:53;5.37;;;4.30;;
15482;SDS011;7843;50.330;7.312;2023-08-21T08:33:20;4.85;;;3.40;;
15482;SDS011;7843;50.330;7.312;2023-08-21T08:35:47;6.05;;;3.88;;
15482;SDS011;7843;50.330;7.312;2023-08-21T08:38:13;5.45;;;3.88;;
15482;SDS011;7843;50.330;7.312;2023-08-21T08:40:43;7.45;;;3.95;;
15482;SDS011;7843;50.330;7.312;2023-08-21T08:43:13;6.93;;;3.47;;
15482;SDS011;7843;50.330;7.312;2023-08-21T08:45:41;6.75;;;3.80;;
15482;SDS011;7843;50.330;7.312;2023-08-21T08:48:12;4.35;;;3.47;;
15482;SDS011;7843;50.330;7.312;2023-08-21T08:50:39;6.37;;;4.13;;
15482;SDS011;7843;50.330;7.312;2023-08-21T08:53:07;6.95;;;3.95;;
15482;SDS011;7843;50.330;7.312;2023-08-21T08:55:40;4.82;;;3.65;;
15482;SDS011;7843;50.330;7.312;2023-08-21T08:58:07;5.45;;;4.00;;
15482;SDS011;7843;50.330;7.312;2023-08-21T09:00:33;4.55;;;3.60;;
15482;SDS011;7843;50.330;7.312;2023-08-21T09:03:00;5.60;;;3.85;;
15482;SDS011;7843;50.330;7.312;2023-08-21T09:05:27;8.93;;;3.77;;
15482;SDS011;7843;50.330;7.312;2023-08-21T09:08:04;9.80;;;4.10;;
15482;SDS011;7843;50.330;7.312;2023-08-21T09:10:37;5.65;;;3.72;;
15482;SDS011;7843;50.330;7.312;2023-08-21T09:13:08;6.55;;;3.70;;
15482;SDS011;7843;50.330;7.312;2023-08-21T09:15:43;5.13;;;3.80;;
15482;SDS011;7843;50.330;7.312;2023-08-21T09:18:19;6.38;;;3.45;;
15482;SDS011;7843;50.330;7.312;2023-08-21T09:20:46;7.25;;;3.60;;
15482;SDS011;7843;50.330;7.312;2023-08-21T09:23:15;5.20;;;3.80;;
15482;SDS011;7843;50.330;7.312;2023-08-21T09:25:45;5.27;;;3.57;;
15482;SDS011;7843;50.330;7.312;2023-08-21T09:28:14;8.70;;;3.60;;
15482;SDS011;7843;50.330;7.312;2023-08-21T09:30:47;4.97;;;3.67;;
15482;SDS011;7843;50.330;7.312;2023-08-21T09:33:22;4.05;;;3.20;;
15482;SDS011;7843;50.330;7.312;2023-08-21T09:35:51;5.87;;;4.03;;
15482;SDS011;7843;50.330;7.312;2023-08-21T09:38:19;6.10;;;3.85;;
15482;SDS011;7843;50.330;7.312;2023-08-21T09:40:52;8.45;;;3.92;;
15482;SDS011;7843;50.330;7.312;2023-08-21T09:43:21;7.03;;;3.95;;
15482;SDS011;7843;50.330;7.312;2023-08-21T09:45:57;4.65;;;3.25;;
15482;SDS011;7843;50.330;7.312;2023-08-21T09:48:25;5.45;;;3.80;;
15482;SDS011;7843;50.330;7.312;2023-08-21T09:50:55;5.75;;;3.28;;
15482;SDS011;7843;50.330;7.312;2023-08-21T09:53:22;5.00;;;3.43;;
15482;SDS011;7843;50.330;7.312;2023-08-21T09:55:53;7.97;;;3.40;;
15482;SDS011;7843;50.330;7.312;2023-08-21T09:58:21;6.15;;;3.63;;
15482;SDS011;7843;50.330;7.312;2023-08-21T10:00:49;5.43;;;3.80;;
15482;SDS011;7843;50.330;7.312;2023-08-21T10:03:20;5.65;;;3.38;;
15482;SDS011;7843;50.330;7.312;2023-08-21T10:05:48;6.90;;;3.38;;
15482;SDS011;7843;50.330;7.312;2023-08-21T10:08:19;5.70;;;3.58;;
15482;SDS011;7843;50.330;7.312;2023-08-21T10:10:50;5.70;;;3.20;;
15482;SDS011;7843;50.330;7.312;2023-08-21T10:13:16;5.72;;;3.30;;
15482;SDS011;7843;50.330;7.312;2023-08-21T10:15:44;7.35;;;3.50;;
15482;SDS011;7843;50.330;7.312;2023-08-21T10:20:49;8.17;;;3.40;;
15482;SDS011;7843;50.330;7.312;2023-08-21T10:23:30;6.68;;;4.00;;
15482;SDS011;7843;50.330;7.312;2023-08-21T10:25:59;9.23;;;3.75;;
15482;SDS011;7843;50.330;7.312;2023-08-21T10:34:03;5.43;;;3.55;;
15482;SDS011;7843;50.330;7.312;2023-08-21T10:39:16;6.18;;;3.55;;
15482;SDS011;7843;50.330;7.312;2023-08-21T10:41:57;8.93;;;3.70;;
15482;SDS011;7843;50.330;7.312;2023-08-21T10:49:52;4.83;;;3.43;;
15482;SDS011;7843;50.330;7.312;2023-08-21T10:54:52;7.80;;;3.40;;
15482;SDS011;7843;50.330;7.312;2023-08-21T10:57:21;6.13;;;3.43;;
15482;SDS011;7843;50.330;7.312;2023-08-21T10:59:56;3.53;;;2.88;;
15482;SDS011;7843;50.330;7.312;2023-08-21T11:02:25;8.48;;;3.42;;
15482;SDS011;7843;50.330;7.312;2023-08-21T11:04:54;12.55;;;4.00;;
15482;SDS011;7843;50.330;7.312;2023-08-21T11:07:21;4.70;;;2.60;;
15482;SDS011;7843;50.330;7.312;2023-08-21T11:09:48;5.85;;;3.00;;
15482;SDS011;7843;50.330;7.312;2023-08-21T11:12:16;4.20;;;3.00;;
15482;SDS011;7843;50.330;7.312;2023-08-21T11:14:47;5.60;;;3.40;;
15482;SDS011;7843;50.330;7.312;2023-08-21T11:17:15;7.60;;;3.42;;
15482;SDS011;7843;50.330;7.312;2023-08-21T11:19:42;3.65;;;2.70;;
15482;SDS011;7843;50.330;7.312;2023-08-21T11:22:10;4.88;;;2.63;;
15482;SDS011;7843;50.330;7.312;2023-08-21T11:27:05;3.60;;;2.65;;
15482;SDS011;7843;50.330;7.312;2023-08-21T11:29:40;2.90;;;2.60;;
15482;SDS011;7843;50.330;7.312;2023-08-21T11:32:18;5.05;;;2.60;;
15482;SDS011;7843;50.330;7.312;2023-08-21T11:34:47;4.93;;;2.65;;
15482;SDS011;7843;50.330;7.312;2023-08-21T11:37:16;2.97;;;2.38;;
15482;SDS011;7843;50.330;7.312;2023-08-21T11:39:48;4.97;;;3.00;;
15482;SDS011;7843;50.330;7.312;2023-08-21T11:42:16;3.55;;;2.50;;
15482;SDS011;7843;50.330;7.312;2023-08-21T11:44:47;4.68;;;2.90;;
15482;SDS011;7843;50.330;7.312;2023-08-21T11:47:15;4.07;;;2.83;;
15482;SDS011;7843;50.330;7.312;2023-08-21T11:49:43;5.10;;;2.40;;
15482;SDS011;7843;50.330;7.312;2023-08-21T11:52:13;4.38;;;2.45;;
15482;SDS011;7843;50.330;7.312;2023-08-21T11:54:43;5.88;;;3.20;;
15482;SDS011;7843;50.330;7.312;2023-08-21T11:57:14;11.30;;;4.45;;
15482;SDS011;7843;50.330;7.312;2023-08-21T11:59:42;6.60;;;2.90;;
15482;SDS011;7843;50.330;7.312;2023-08-21T12:02:21;17.35;;;3.92;;
15482;SDS011;7843;50.330;7.312;2023-08-21T12:04:54;5.95;;;3.00;;
15482;SDS011;7843;50.330;7.312;2023-08-21T12:07:28;6.63;;;3.40;;
15482;SDS011;7843;50.330;7.312;2023-08-21T12:09:55;6.68;;;3.60;;
15482;SDS011;7843;50.330;7.312;2023-08-21T12:12:22;4.45;;;3.28;;
15482;SDS011;7843;50.330;7.312;2023-08-21T12:14:50;8.60;;;3.30;;
15482;SDS011;7843;50.330;7.312;2023-08-21T12:17:17;16.02;;;4.43;;
15482;SDS011;7843;50.330;7.312;2023-08-21T12:19:43;4.75;;;2.72;;
15482;SDS011;7843;50.330;7.312;2023-08-21T12:22:10;8.25;;;3.03;;
15482;SDS011;7843;50.330;7.312;2023-08-21T12:24:38;4.43;;;2.92;;
15482;SDS011;7843;50.330;7.312;2023-08-21T12:27:05;5.20;;;3.05;;
15482;SDS011;7843;50.330;7.312;2023-08-21T12:29:32;4.07;;;2.53;;
15482;SDS011;7843;50.330;7.312;2023-08-21T12:32:00;7.55;;;3.10;;
15482;SDS011;7843;50.330;7.312;2023-08-21T12:34:27;7.25;;;2.97;;
15482;SDS011;7843;50.330;7.312;2023-08-21T12:36:54;4.93;;;2.60;;
15482;SDS011;7843;50.330;7.312;2023-08-21T12:39:21;5.57;;;2.23;;
15482;SDS011;7843;50.330;7.312;2023-08-21T12:41:48;6.95;;;2.97;;
15482;SDS011;7843;50.330;7.312;2023-08-21T12:44:16;3.45;;;2.40;;
15482;SDS011;7843;50.330;7.312;2023-08-21T12:46:43;3.95;;;2.40;;
15482;SDS011;7843;50.330;7.312;2023-08-21T12:49:11;3.30;;;2.22;;
15482;SDS011;7843;50.330;7.312;2023-08-21T12:51:38;3.65;;;2.55;;
15482;SDS011;7843;50.330;7.312;2023-08-21T12:54:05;5.47;;;2.25;;
15482;SDS011;7843;50.330;7.312;2023-08-21T12:56:31;8.67;;;2.67;;
15482;SDS011;7843;50.330;7.312;2023-08-21T12:58:58;3.42;;;2.30;;
15482;SDS011;7843;50.330;7.312;2023-08-21T13:01:25;6.40;;;2.47;;
15482;SDS011;7843;50.330;7.312;2023-08-21T13:03:52;4.97;;;2.60;;
15482;SDS011;7843;50.330;7.312;2023-08-21T13:06:19;3.73;;;2.23;;
15482;SDS011;7843;50.330;7.312;2023-08-21T13:08:46;4.20;;;2.30;;
15482;SDS011;7843;50.330;7.312;2023-08-21T13:11:13;3.50;;;2.20;;
15482;SDS011;7843;50.330;7.312;2023-08-21T13:13:39;8.63;;;2.45;;
15482;SDS011;7843;50.330;7.312;2023-08-21T13:16:06;3.20;;;2.22;;
15482;SDS011;7843;50.330;7.312;2023-08-21T13:18:33;4.80;;;2.20;;
15482;SDS011;7843;50.330;7.312;2023-08-21T13:21:00;3.85;;;2.30;;
15482;SDS011;7843;50.330;7.312;2023-08-21T13:23:27;4.72;;;2.05;;
15482;SDS011;7843;50.330;7.312;2023-08-21T13:25:55;5.47;;;2.22;;
15482;SDS011;7843;50.330;7.312;2023-08-21T13:28:24;4.15;;;2.33;;
15482;SDS011;7843;50.330;7.312;2023-08-21T13:30:52;2.90;;;2.17;;
15482;SDS011;7843;50.330;7.312;2023-08-21T13:33:19;5.72;;;2.70;;
15482;SDS011;7843;50.330;7.312;2023-08-21T13:35:46;5.60;;;2.78;;
15482;SDS011;7843;50.330;7.312;2023-08-21T13:38:13;3.25;;;2.20;;
15482;SDS011;7843;50.330;7.312;2023-08-21T13:40:40;5.82;;;2.72;;
15482;SDS011;7843;50.330;7.312;2023-08-21T13:43:07;7.10;;;3.03;;
15482;SDS011;7843;50.330;7.312;2023-08-21T13:45:36;3.75;;;2.30;;
15482;SDS011;7843;50.330;7.312;2023-08-21T13:48:03;5.93;;;2.47;;
15482;SDS011;7843;50.330;7.312;2023-08-21T13:50:30;8.00;;;2.50;;
15482;SDS011;7843;50.330;7.312;2023-08-21T13:52:57;3.03;;;2.35;;
15482;SDS011;7843;50.330;7.312;2023-08-21T13:55:24;4.15;;;2.50;;
15482;SDS011;7843;50.330;7.312;2023-08-21T13:57:51;4.65;;;1.98;;
15482;SDS011;7843;50.330;7.312;2023-08-21T14:00:17;4.07;;;2.20;;
15482;SDS011;7843;50.330;7.312;2023-08-21T14:02:44;4.18;;;2.55;;
15482;SDS011;7843;50.330;7.312;2023-08-21T14:05:11;5.43;;;2.33;;
15482;SDS011;7843;50.330;7.312;2023-08-21T14:07:46;4.47;;;2.40;;
15482;SDS011;7843;50.330;7.312;2023-08-21T14:10:13;7.15;;;2.53;;
15482;SDS011;7843;50.330;7.312;2023-08-21T14:12:40;11.88;;;2.70;;
15482;SDS011;7843;50.330;7.312;2023-08-21T14:15:07;7.63;;;2.42;;
15482;SDS011;7843;50.330;7.312;2023-08-21T14:17:36;6.50;;;2.47;;
15482;SDS011;7843;50.330;7.312;2023-08-21T14:20:04;6.13;;;2.53;;
15482;SDS011;7843;50.330;7.312;2023-08-21T14:22:34;4.70;;;2.42;;
15482;SDS011;7843;50.330;7.312;2023-08-21T14:25:01;3.13;;;2.25;;
15482;SDS011;7843;50.330;7.312;2023-08-21T14:27:30;3.42;;;2.40;;
15482;SDS011;7843;50.330;7.312;2023-08-21T14:29:57;4.60;;;2.40;;
15482;SDS011;7843;50.330;7.312;2023-08-21T14:32:24;5.45;;;2.72;;
15482;SDS011;7843;50.330;7.312;2023-08-21T14:34:52;7.40;;;2.40;;
15482;SDS011;7843;50.330;7.312;2023-08-21T14:37:20;4.30;;;2.15;;
15482;SDS011;7843;50.330;7.312;2023-08-21T14:39:47;4.72;;;2.20;;
15482;SDS011;7843;50.330;7.312;2023-08-21T14:42:14;6.05;;;2.25;;
15482;SDS011;7843;50.330;7.312;2023-08-21T14:44:41;3.90;;;2.40;;
15482;SDS011;7843;50.330;7.312;2023-08-21T14:47:08;3.30;;;1.93;;
15482;SDS011;7843;50.330;7.312;2023-08-21T14:49:34;4.13;;;2.25;;
15482;SDS011;7843;50.330;7.312;2023-08-21T14:52:01;4.88;;;2.40;;
15482;SDS011;7843;50.330;7.312;2023-08-21T14:54:29;4.32;;;2.70;;
15482;SDS011;7843;50.330;7.312;2023-08-21T14:56:56;5.63;;;2.60;;
15482;SDS011;7843;50.330;7.312;2023-08-21T14:59:23;5.25;;;2.50;;
15482;SDS011;7843;50.330;7.312;2023-08-21T15:01:49;3.97;;;2.17;;
15482;SDS011;7843;50.330;7.312;2023-08-21T15:04:16;3.85;;;2.20;;
15482;SDS011;7843;50.330;7.312;2023-08-21T15:06:43;4.03;;;2.27;;
15482;SDS011;7843;50.330;7.312;2023-08-21T15:09:11;3.75;;;2.30;;
15482;SDS011;7843;50.330;7.312;2023-08-21T15:11:39;3.00;;;2.10;;
15482;SDS011;7843;50.330;7.312;2023-08-21T15:14:09;3.83;;;2.40;;
15482;SDS011;7843;50.330;7.312;2023-08-21T15:16:37;4.37;;;2.13;;
15482;SDS011;7843;50.330;7.312;2023-08-21T15:19:04;4.18;;;2.33;;
15482;SDS011;7843;50.330;7.312;2023-08-21T15:21:31;3.45;;;2.10;;
15482;SDS011;7843;50.330;7.312;2023-08-21T15:23:58;6.22;;;2.25;;
15482;SDS011;7843;50.330;7.312;2023-08-21T15:26:27;3.45;;;2.20;;
15482;SDS011;7843;50.330;7.312;2023-08-21T15:28:53;3.70;;;2.50;;